METAR AND TAF INFORMATION
METAR FOR LIEA
ADDS - METARS form results

(1645 UTC 25 June 2019)
Data provider http://aviationweather.gov/metar/data/
 
METAR text: LIEA 251620Z 06013KT CAVOK 35/16 Q1016
Conditions at: LIEA (ALGHERO , IT) observed 1620 UTC 25 June 2019
Temperature: 35.0°C (95°F)
Dewpoint: 16.0°C (61°F) [RH = 32%]
Pressure (altimeter): 30.00 inches Hg (1016.0 mb)
Winds: from the ENE (60 degrees) at 15 MPH (13 knots; 6.7 m/s)
Visibility: 6 or more miles (10+ km)
Ceiling: ceiling and visibility are OK
Clouds: unknown
Weather: no significant weather observed at this time

METAR text: LIEA 251550Z 06014KT CAVOK 35/15 Q1017
Conditions at: LIEA (ALGHERO , IT) observed 1550 UTC 25 June 2019
Temperature: 35.0°C (95°F)
Dewpoint: 15.0°C (59°F) [RH = 30%]
Pressure (altimeter): 30.03 inches Hg (1017.0 mb)
Winds: from the ENE (60 degrees) at 16 MPH (14 knots; 7.2 m/s)
Visibility: 6 or more miles (10+ km)
Ceiling: ceiling and visibility are OK
Clouds: unknown
Weather: no significant weather observed at this time

Forecast for: AMD
Text: TAF AMD LIEA 251408Z 2514/2612 07014KT CAVOK
Forecast period: 1400 to 1600 UTC 25 June 2019
Forecast type: FROM: standard forecast or significant change
Winds: from the ENE (70 degrees) at 16 MPH (14 knots; 7.2 m/s)
Visibility: 6 or more miles 10+ km)
Ceiling: unknown
Clouds: missing
Weather: NSW  (no significant weather)
Text: BECMG 2516/2518 VRB04KT
Forecast period: 1600 UTC 25 June 2019 to 1000 UTC 26 June 2019
Forecast type: BECOMING: Conditions expected to become as follows by 1800 UTC 25 June 2019
Winds: variable direction winds at 5 MPH (4 knots; 2.1 m/s)
Visibility: 6 or more miles 10+ km)
Ceiling: unknown
Clouds: missing
Weather: NSW  (no significant weather)
Text: BECMG 2610/2612 05012KT
Forecast period: 1000 to 1200 UTC 26 June 2019
Forecast type: BECOMING: Conditions expected to become as follows by 1200 UTC 26 June 2019
Winds: from the NE (50 degrees) at 14 MPH (12 knots; 6.2 m/s)
Visibility: 6 or more miles 10+ km)
Ceiling: unknown
Clouds: missing
Weather: NSW  (no significant weather)

 AIRPORT MAP

 RUNWAY INFORMATION
Runway 02 Runway length 9843 ft Runway width 148 ft
Runway elevation 69 ft Runway displaced threshold 0 ft Runway heading 25
Runway 20 Runway length 9843 ft Runway width 148 ft
Runway elevation 87 ft Runway displaced threshold 0 ft Runway heading 205

 AIRPORT FREQUENCIES
Type APP Name APP Frequency 128.55 MHZ
Type ATIS Name ATIS Frequency 125.025 MHZ
Type TWR Name TWR Frequency 118.85 MHZ

 AIRPORT NEAR NAVIGATION AIDS
Type TACAN Name Alghero Frequency 109300 KHZ
Type VORTAC Name Alghero Frequency 113800 KHZ
Type NDB Name Alghero Frequency 382 KHZ



Powered by Virtual Airlines Manager [v2.6.2]